sensor_id;sensor_type;location;lat;lon;timestamp;P1;durP1;ratioP1;P2;durP2;ratioP2
70818;SDS011;58439;51.046;13.692;2022-07-06T00:02:01;7.45;;;6.38;;
70818;SDS011;58439;51.046;13.692;2022-07-06T00:04:29;8.25;;;7.22;;
70818;SDS011;58439;51.046;13.692;2022-07-06T00:06:56;6.80;;;6.30;;
70818;SDS011;58439;51.046;13.692;2022-07-06T00:09:23;7.63;;;7.00;;
70818;SDS011;58439;51.046;13.692;2022-07-06T00:11:50;8.45;;;6.35;;
70818;SDS011;58439;51.046;13.692;2022-07-06T00:14:17;7.53;;;6.82;;
70818;SDS011;58439;51.046;13.692;2022-07-06T00:16:44;7.22;;;6.55;;
70818;SDS011;58439;51.046;13.692;2022-07-06T00:19:12;7.55;;;6.82;;
70818;SDS011;58439;51.046;13.692;2022-07-06T00:21:39;7.03;;;6.28;;
70818;SDS011;58439;51.046;13.692;2022-07-06T00:24:07;7.10;;;6.50;;
70818;SDS011;58439;51.046;13.692;2022-07-06T00:26:35;6.82;;;6.03;;
70818;SDS011;58439;51.046;13.692;2022-07-06T00:29:02;7.32;;;6.60;;
70818;SDS011;58439;51.046;13.692;2022-07-06T00:31:29;8.82;;;7.00;;
70818;SDS011;58439;51.046;13.692;2022-07-06T00:33:57;7.75;;;6.82;;
70818;SDS011;58439;51.046;13.692;2022-07-06T00:36:24;11.48;;;6.35;;
70818;SDS011;58439;51.046;13.692;2022-07-06T00:38:51;6.28;;;5.88;;
70818;SDS011;58439;51.046;13.692;2022-07-06T00:41:18;6.03;;;5.32;;
70818;SDS011;58439;51.046;13.692;2022-07-06T00:43:49;7.00;;;6.22;;
70818;SDS011;58439;51.046;13.692;2022-07-06T00:46:18;7.35;;;6.47;;
70818;SDS011;58439;51.046;13.692;2022-07-06T00:48:47;6.75;;;6.15;;
70818;SDS011;58439;51.046;13.692;2022-07-06T00:51:14;7.05;;;6.50;;
70818;SDS011;58439;51.046;13.692;2022-07-06T00:53:41;7.45;;;6.85;;
70818;SDS011;58439;51.046;13.692;2022-07-06T00:56:09;7.35;;;6.75;;
70818;SDS011;58439;51.046;13.692;2022-07-06T00:58:37;8.52;;;6.93;;
70818;SDS011;58439;51.046;13.692;2022-07-06T01:01:04;8.32;;;6.55;;
70818;SDS011;58439;51.046;13.692;2022-07-06T01:03:32;9.25;;;7.78;;
70818;SDS011;58439;51.046;13.692;2022-07-06T01:05:59;10.25;;;6.13;;
70818;SDS011;58439;51.046;13.692;2022-07-06T01:08:27;7.03;;;6.43;;
70818;SDS011;58439;51.046;13.692;2022-07-06T01:10:55;7.22;;;6.53;;
70818;SDS011;58439;51.046;13.692;2022-07-06T01:13:22;8.02;;;7.00;;
70818;SDS011;58439;51.046;13.692;2022-07-06T01:15:50;6.95;;;6.35;;
70818;SDS011;58439;51.046;13.692;2022-07-06T01:18:18;5.93;;;5.43;;
70818;SDS011;58439;51.046;13.692;2022-07-06T01:20:46;7.22;;;6.53;;
70818;SDS011;58439;51.046;13.692;2022-07-06T01:23:13;7.30;;;6.32;;
70818;SDS011;58439;51.046;13.692;2022-07-06T01:25:41;9.57;;;6.78;;
70818;SDS011;58439;51.046;13.692;2022-07-06T01:28:08;8.00;;;7.30;;
70818;SDS011;58439;51.046;13.692;2022-07-06T01:30:35;9.05;;;7.03;;
70818;SDS011;58439;51.046;13.692;2022-07-06T01:33:02;9.40;;;6.97;;
70818;SDS011;58439;51.046;13.692;2022-07-06T01:35:31;8.13;;;6.55;;
70818;SDS011;58439;51.046;13.692;2022-07-06T01:38:02;9.30;;;7.38;;
70818;SDS011;58439;51.046;13.692;2022-07-06T01:40:29;8.40;;;6.57;;
70818;SDS011;58439;51.046;13.692;2022-07-06T01:42:56;7.35;;;6.75;;
70818;SDS011;58439;51.046;13.692;2022-07-06T01:45:23;7.82;;;7.03;;
70818;SDS011;58439;51.046;13.692;2022-07-06T01:47:50;7.03;;;6.28;;
70818;SDS011;58439;51.046;13.692;2022-07-06T01:50:17;8.85;;;7.93;;
70818;SDS011;58439;51.046;13.692;2022-07-06T01:52:45;8.20;;;7.28;;
70818;SDS011;58439;51.046;13.692;2022-07-06T01:55:13;7.63;;;7.03;;
70818;SDS011;58439;51.046;13.692;2022-07-06T01:57:40;10.90;;;7.45;;
70818;SDS011;58439;51.046;13.692;2022-07-06T02:00:09;10.00;;;7.88;;
70818;SDS011;58439;51.046;13.692;2022-07-06T02:02:43;9.85;;;7.10;;
70818;SDS011;58439;51.046;13.692;2022-07-06T02:05:11;7.68;;;7.07;;
70818;SDS011;58439;51.046;13.692;2022-07-06T02:07:38;6.93;;;6.32;;
70818;SDS011;58439;51.046;13.692;2022-07-06T02:10:07;7.50;;;6.80;;
70818;SDS011;58439;51.046;13.692;2022-07-06T02:12:34;7.38;;;6.07;;
70818;SDS011;58439;51.046;13.692;2022-07-06T02:15:02;7.43;;;6.72;;
70818;SDS011;58439;51.046;13.692;2022-07-06T02:17:29;7.50;;;6.80;;
70818;SDS011;58439;51.046;13.692;2022-07-06T02:19:56;7.07;;;6.15;;
70818;SDS011;58439;51.046;13.692;2022-07-06T02:22:23;7.50;;;6.78;;
70818;SDS011;58439;51.046;13.692;2022-07-06T02:24:50;7.45;;;5.90;;
70818;SDS011;58439;51.046;13.692;2022-07-06T02:27:18;9.73;;;7.05;;
70818;SDS011;58439;51.046;13.692;2022-07-06T02:29:45;7.82;;;7.03;;
70818;SDS011;58439;51.046;13.692;2022-07-06T02:32:12;8.07;;;6.57;;
70818;SDS011;58439;51.046;13.692;2022-07-06T02:34:40;7.93;;;7.13;;
70818;SDS011;58439;51.046;13.692;2022-07-06T02:37:07;8.13;;;6.22;;
70818;SDS011;58439;51.046;13.692;2022-07-06T02:39:34;8.32;;;6.68;;
70818;SDS011;58439;51.046;13.692;2022-07-06T02:42:02;7.43;;;6.38;;
70818;SDS011;58439;51.046;13.692;2022-07-06T02:44:30;7.35;;;6.65;;
70818;SDS011;58439;51.046;13.692;2022-07-06T02:46:58;7.95;;;7.13;;
70818;SDS011;58439;51.046;13.692;2022-07-06T02:49:25;8.80;;;7.90;;
70818;SDS011;58439;51.046;13.692;2022-07-06T02:51:52;9.02;;;7.00;;
70818;SDS011;58439;51.046;13.692;2022-07-06T02:54:20;8.30;;;7.50;;
70818;SDS011;58439;51.046;13.692;2022-07-06T02:56:47;8.30;;;7.50;;
70818;SDS011;58439;51.046;13.692;2022-07-06T02:59:19;8.00;;;7.10;;
70818;SDS011;58439;51.046;13.692;2022-07-06T03:01:47;10.13;;;7.13;;
70818;SDS011;58439;51.046;13.692;2022-07-06T03:04:14;8.20;;;7.40;;
70818;SDS011;58439;51.046;13.692;2022-07-06T03:06:43;7.60;;;6.88;;
70818;SDS011;58439;51.046;13.692;2022-07-06T03:09:10;7.53;;;6.60;;
70818;SDS011;58439;51.046;13.692;2022-07-06T03:11:38;7.82;;;6.85;;
70818;SDS011;58439;51.046;13.692;2022-07-06T03:14:05;7.57;;;6.88;;
70818;SDS011;58439;51.046;13.692;2022-07-06T03:16:35;7.28;;;6.68;;
70818;SDS011;58439;51.046;13.692;2022-07-06T03:19:03;7.80;;;7.10;;
70818;SDS011;58439;51.046;13.692;2022-07-06T03:21:30;7.22;;;6.60;;
70818;SDS011;58439;51.046;13.692;2022-07-06T03:23:58;7.72;;;7.03;;
70818;SDS011;58439;51.046;13.692;2022-07-06T03:26:25;7.78;;;6.97;;
70818;SDS011;58439;51.046;13.692;2022-07-06T03:28:54;9.43;;;7.80;;
70818;SDS011;58439;51.046;13.692;2022-07-06T03:31:21;8.45;;;7.75;;
70818;SDS011;58439;51.046;13.692;2022-07-06T03:33:49;7.85;;;6.97;;
70818;SDS011;58439;51.046;13.692;2022-07-06T03:36:16;9.38;;;7.70;;
70818;SDS011;58439;51.046;13.692;2022-07-06T03:38:43;9.50;;;7.93;;
70818;SDS011;58439;51.046;13.692;2022-07-06T03:41:11;6.97;;;6.28;;
70818;SDS011;58439;51.046;13.692;2022-07-06T03:43:38;11.75;;;7.00;;
70818;SDS011;58439;51.046;13.692;2022-07-06T03:46:05;7.88;;;6.93;;
70818;SDS011;58439;51.046;13.692;2022-07-06T03:48:33;6.63;;;5.97;;
70818;SDS011;58439;51.046;13.692;2022-07-06T03:51:01;8.80;;;6.18;;
70818;SDS011;58439;51.046;13.692;2022-07-06T03:53:28;7.30;;;6.60;;
70818;SDS011;58439;51.046;13.692;2022-07-06T03:55:55;7.78;;;7.07;;
70818;SDS011;58439;51.046;13.692;2022-07-06T03:58:41;7.85;;;5.85;;
70818;SDS011;58439;51.046;13.692;2022-07-06T04:01:09;6.30;;;5.70;;
70818;SDS011;58439;51.046;13.692;2022-07-06T04:03:36;6.03;;;5.53;;
70818;SDS011;58439;51.046;13.692;2022-07-06T04:06:04;7.47;;;5.68;;
70818;SDS011;58439;51.046;13.692;2022-07-06T04:08:39;8.70;;;6.05;;
70818;SDS011;58439;51.046;13.692;2022-07-06T04:11:06;6.38;;;5.78;;
70818;SDS011;58439;51.046;13.692;2022-07-06T04:13:34;6.32;;;5.72;;
70818;SDS011;58439;51.046;13.692;2022-07-06T04:16:03;5.88;;;5.30;;
70818;SDS011;58439;51.046;13.692;2022-07-06T04:18:31;6.55;;;5.50;;
70818;SDS011;58439;51.046;13.692;2022-07-06T04:20:59;7.95;;;5.63;;
70818;SDS011;58439;51.046;13.692;2022-07-06T04:23:28;8.18;;;6.00;;
70818;SDS011;58439;51.046;13.692;2022-07-06T04:25:56;8.30;;;6.40;;
70818;SDS011;58439;51.046;13.692;2022-07-06T04:28:25;8.55;;;5.80;;
70818;SDS011;58439;51.046;13.692;2022-07-06T04:30:52;7.10;;;5.72;;
70818;SDS011;58439;51.046;13.692;2022-07-06T04:33:22;9.43;;;6.05;;
70818;SDS011;58439;51.046;13.692;2022-07-06T04:35:49;7.55;;;6.00;;
70818;SDS011;58439;51.046;13.692;2022-07-06T04:38:19;6.22;;;5.68;;
70818;SDS011;58439;51.046;13.692;2022-07-06T04:40:47;6.40;;;5.78;;
70818;SDS011;58439;51.046;13.692;2022-07-06T04:43:17;7.10;;;6.03;;
70818;SDS011;58439;51.046;13.692;2022-07-06T04:45:44;8.65;;;6.32;;
70818;SDS011;58439;51.046;13.692;2022-07-06T04:48:11;6.70;;;6.10;;
70818;SDS011;58439;51.046;13.692;2022-07-06T04:50:38;11.13;;;6.05;;
70818;SDS011;58439;51.046;13.692;2022-07-06T04:53:10;12.43;;;7.00;;
70818;SDS011;58439;51.046;13.692;2022-07-06T04:55:37;6.47;;;5.85;;
70818;SDS011;58439;51.046;13.692;2022-07-06T04:58:04;7.15;;;5.32;;
70818;SDS011;58439;51.046;13.692;2022-07-06T05:00:41;11.82;;;6.75;;
70818;SDS011;58439;51.046;13.692;2022-07-06T05:03:08;8.80;;;5.97;;
70818;SDS011;58439;51.046;13.692;2022-07-06T05:05:36;8.68;;;5.68;;
70818;SDS011;58439;51.046;13.692;2022-07-06T05:11:20;8.73;;;5.97;;
70818;SDS011;58439;51.046;13.692;2022-07-06T05:14:14;11.82;;;7.10;;
70818;SDS011;58439;51.046;13.692;2022-07-06T05:17:15;7.50;;;5.88;;
70818;SDS011;58439;51.046;13.692;2022-07-06T05:20:04;7.07;;;5.43;;
70818;SDS011;58439;51.046;13.692;2022-07-06T05:22:54;9.13;;;5.72;;
70818;SDS011;58439;51.046;13.692;2022-07-06T05:25:56;13.27;;;5.30;;
70818;SDS011;58439;51.046;13.692;2022-07-06T05:28:27;6.88;;;4.93;;
70818;SDS011;58439;51.046;13.692;2022-07-06T05:31:26;12.85;;;4.88;;
70818;SDS011;58439;51.046;13.692;2022-07-06T05:35:33;6.88;;;6.07;;
70818;SDS011;58439;51.046;13.692;2022-07-06T05:39:07;8.63;;;4.65;;
70818;SDS011;58439;51.046;13.692;2022-07-06T05:42:10;7.63;;;4.60;;
70818;SDS011;58439;51.046;13.692;2022-07-06T05:45:34;7.07;;;4.55;;
70818;SDS011;58439;51.046;13.692;2022-07-06T05:57:31;5.32;;;4.18;;
70818;SDS011;58439;51.046;13.692;2022-07-06T06:01:13;7.55;;;3.85;;
70818;SDS011;58439;51.046;13.692;2022-07-06T06:27:39;6.15;;;4.25;;
70818;SDS011;58439;51.046;13.692;2022-07-06T06:32:42;13.10;;;4.15;;
70818;SDS011;58439;51.046;13.692;2022-07-06T06:35:19;8.02;;;4.85;;
70818;SDS011;58439;51.046;13.692;2022-07-06T06:38:03;6.78;;;4.43;;
70818;SDS011;58439;51.046;13.692;2022-07-06T06:41:24;7.05;;;3.70;;
70818;SDS011;58439;51.046;13.692;2022-07-06T06:46:13;8.88;;;4.07;;
70818;SDS011;58439;51.046;13.692;2022-07-06T06:49:40;9.73;;;4.43;;
70818;SDS011;58439;51.046;13.692;2022-07-06T06:52:34;7.75;;;4.18;;
70818;SDS011;58439;51.046;13.692;2022-07-06T06:55:26;5.25;;;4.20;;
70818;SDS011;58439;51.046;13.692;2022-07-06T06:58:31;5.28;;;4.78;;
70818;SDS011;58439;51.046;13.692;2022-07-06T07:02:06;9.15;;;4.72;;
70818;SDS011;58439;51.046;13.692;2022-07-06T07:08:12;4.45;;;3.88;;
70818;SDS011;58439;51.046;13.692;2022-07-06T07:10:46;5.45;;;3.17;;
70818;SDS011;58439;51.046;13.692;2022-07-06T07:13:24;6.60;;;3.88;;
70818;SDS011;58439;51.046;13.692;2022-07-06T07:16:03;4.60;;;3.95;;
70818;SDS011;58439;51.046;13.692;2022-07-06T07:18:32;4.90;;;4.05;;
70818;SDS011;58439;51.046;13.692;2022-07-06T07:21:00;4.70;;;4.30;;
70818;SDS011;58439;51.046;13.692;2022-07-06T07:23:27;9.68;;;5.05;;
70818;SDS011;58439;51.046;13.692;2022-07-06T07:25:55;6.65;;;4.78;;
70818;SDS011;58439;51.046;13.692;2022-07-06T07:28:22;7.15;;;4.35;;
70818;SDS011;58439;51.046;13.692;2022-07-06T07:30:52;7.70;;;5.57;;
70818;SDS011;58439;51.046;13.692;2022-07-06T07:33:35;7.00;;;4.65;;
70818;SDS011;58439;51.046;13.692;2022-07-06T07:36:15;5.57;;;4.25;;
70818;SDS011;58439;51.046;13.692;2022-07-06T07:38:53;4.10;;;3.75;;
70818;SDS011;58439;51.046;13.692;2022-07-06T07:41:24;6.45;;;3.63;;
70818;SDS011;58439;51.046;13.692;2022-07-06T07:43:52;5.60;;;5.03;;
70818;SDS011;58439;51.046;13.692;2022-07-06T07:46:25;9.93;;;4.00;;
70818;SDS011;58439;51.046;13.692;2022-07-06T07:49:03;6.63;;;4.32;;
70818;SDS011;58439;51.046;13.692;2022-07-06T07:51:35;4.53;;;4.05;;
70818;SDS011;58439;51.046;13.692;2022-07-06T07:54:02;5.85;;;4.45;;
70818;SDS011;58439;51.046;13.692;2022-07-06T07:56:30;4.78;;;4.25;;
70818;SDS011;58439;51.046;13.692;2022-07-06T07:59:00;6.10;;;5.50;;
70818;SDS011;58439;51.046;13.692;2022-07-06T08:01:30;5.97;;;4.70;;
70818;SDS011;58439;51.046;13.692;2022-07-06T08:03:59;8.02;;;3.88;;
70818;SDS011;58439;51.046;13.692;2022-07-06T08:06:27;4.45;;;3.63;;
70818;SDS011;58439;51.046;13.692;2022-07-06T08:08:54;6.05;;;4.13;;
70818;SDS011;58439;51.046;13.692;2022-07-06T08:11:21;4.68;;;4.30;;
70818;SDS011;58439;51.046;13.692;2022-07-06T08:13:49;5.22;;;4.30;;
70818;SDS011;58439;51.046;13.692;2022-07-06T08:16:17;7.53;;;4.72;;
70818;SDS011;58439;51.046;13.692;2022-07-06T08:18:48;4.72;;;4.22;;
70818;SDS011;58439;51.046;13.692;2022-07-06T08:21:19;4.82;;;4.35;;
70818;SDS011;58439;51.046;13.692;2022-07-06T08:23:55;5.00;;;4.55;;
70818;SDS011;58439;51.046;13.692;2022-07-06T08:26:22;4.78;;;4.25;;
70818;SDS011;58439;51.046;13.692;2022-07-06T08:28:50;7.43;;;4.47;;
70818;SDS011;58439;51.046;13.692;2022-07-06T08:31:18;4.95;;;4.10;;
70818;SDS011;58439;51.046;13.692;2022-07-06T08:34:06;8.60;;;4.57;;
70818;SDS011;58439;51.046;13.692;2022-07-06T08:36:34;4.80;;;4.35;;
70818;SDS011;58439;51.046;13.692;2022-07-06T08:39:02;6.88;;;4.28;;
70818;SDS011;58439;51.046;13.692;2022-07-06T08:41:30;6.28;;;4.47;;
70818;SDS011;58439;51.046;13.692;2022-07-06T08:44:11;6.60;;;5.03;;
70818;SDS011;58439;51.046;13.692;2022-07-06T08:47:13;4.75;;;4.28;;
70818;SDS011;58439;51.046;13.692;2022-07-06T08:49:58;4.78;;;4.25;;
70818;SDS011;58439;51.046;13.692;2022-07-06T08:53:08;5.47;;;3.88;;
70818;SDS011;58439;51.046;13.692;2022-07-06T08:56:36;8.68;;;4.03;;
70818;SDS011;58439;51.046;13.692;2022-07-06T08:59:25;8.23;;;4.03;;
70818;SDS011;58439;51.046;13.692;2022-07-06T09:10:33;6.32;;;3.75;;
70818;SDS011;58439;51.046;13.692;2022-07-06T09:13:13;4.55;;;4.20;;
70818;SDS011;58439;51.046;13.692;2022-07-06T09:16:26;4.07;;;3.63;;
70818;SDS011;58439;51.046;13.692;2022-07-06T09:19:34;4.88;;;4.47;;
70818;SDS011;58439;51.046;13.692;2022-07-06T09:22:11;5.30;;;3.70;;
70818;SDS011;58439;51.046;13.692;2022-07-06T09:29:08;6.95;;;4.53;;
70818;SDS011;58439;51.046;13.692;2022-07-06T09:32:22;6.45;;;4.80;;
70818;SDS011;58439;51.046;13.692;2022-07-06T09:35:04;7.45;;;4.68;;
70818;SDS011;58439;51.046;13.692;2022-07-06T09:37:37;4.43;;;3.88;;
70818;SDS011;58439;51.046;13.692;2022-07-06T09:40:21;7.07;;;4.00;;
70818;SDS011;58439;51.046;13.692;2022-07-06T09:43:07;6.05;;;5.22;;
70818;SDS011;58439;51.046;13.692;2022-07-06T09:45:56;5.35;;;4.90;;
70818;SDS011;58439;51.046;13.692;2022-07-06T09:48:39;7.38;;;5.80;;
70818;SDS011;58439;51.046;13.692;2022-07-06T09:51:40;7.55;;;4.20;;
70818;SDS011;58439;51.046;13.692;2022-07-06T09:54:35;5.80;;;4.47;;
70818;SDS011;58439;51.046;13.692;2022-07-06T09:57:36;7.00;;;4.20;;
70818;SDS011;58439;51.046;13.692;2022-07-06T10:00:16;5.13;;;4.57;;
70818;SDS011;58439;51.046;13.692;2022-07-06T10:03:06;4.85;;;4.07;;
70818;SDS011;58439;51.046;13.692;2022-07-06T10:06:53;5.65;;;5.13;;
70818;SDS011;58439;51.046;13.692;2022-07-06T10:09:51;6.72;;;4.30;;
70818;SDS011;58439;51.046;13.692;2022-07-06T10:16:14;6.60;;;5.00;;
70818;SDS011;58439;51.046;13.692;2022-07-06T10:18:41;7.72;;;3.85;;
70818;SDS011;58439;51.046;13.692;2022-07-06T10:21:12;4.90;;;4.40;;
70818;SDS011;58439;51.046;13.692;2022-07-06T10:23:48;5.35;;;4.07;;
70818;SDS011;58439;51.046;13.692;2022-07-06T10:26:23;5.70;;;5.15;;
70818;SDS011;58439;51.046;13.692;2022-07-06T10:28:51;4.93;;;4.53;;
70818;SDS011;58439;51.046;13.692;2022-07-06T10:31:20;4.57;;;4.18;;
70818;SDS011;58439;51.046;13.692;2022-07-06T10:34:22;6.82;;;6.32;;
70818;SDS011;58439;51.046;13.692;2022-07-06T10:36:50;5.20;;;4.18;;
70818;SDS011;58439;51.046;13.692;2022-07-06T10:39:34;5.15;;;4.43;;
70818;SDS011;58439;51.046;13.692;2022-07-06T10:45:10;5.90;;;3.25;;
70818;SDS011;58439;51.046;13.692;2022-07-06T10:47:41;5.68;;;5.03;;
70818;SDS011;58439;51.046;13.692;2022-07-06T10:50:08;5.53;;;4.70;;
70818;SDS011;58439;51.046;13.692;2022-07-06T10:52:49;7.38;;;5.40;;
70818;SDS011;58439;51.046;13.692;2022-07-06T10:55:29;7.55;;;4.20;;
70818;SDS011;58439;51.046;13.692;2022-07-06T10:58:08;4.80;;;4.40;;
70818;SDS011;58439;51.046;13.692;2022-07-06T11:00:53;4.88;;;4.45;;
70818;SDS011;58439;51.046;13.692;2022-07-06T11:03:30;4.90;;;4.40;;
70818;SDS011;58439;51.046;13.692;2022-07-06T11:06:15;5.22;;;4.40;;
70818;SDS011;58439;51.046;13.692;2022-07-06T11:08:54;4.75;;;3.45;;
70818;SDS011;58439;51.046;13.692;2022-07-06T11:17:26;7.05;;;3.63;;
70818;SDS011;58439;51.046;13.692;2022-07-06T11:20:17;4.20;;;3.80;;
70818;SDS011;58439;51.046;13.692;2022-07-06T11:23:06;5.60;;;4.45;;
70818;SDS011;58439;51.046;13.692;2022-07-06T11:25:41;5.10;;;4.53;;
70818;SDS011;58439;51.046;13.692;2022-07-06T11:28:17;4.72;;;3.40;;
70818;SDS011;58439;51.046;13.692;2022-07-06T11:31:01;6.03;;;3.63;;
70818;SDS011;58439;51.046;13.692;2022-07-06T11:33:48;5.22;;;3.53;;
70818;SDS011;58439;51.046;13.692;2022-07-06T11:36:45;3.72;;;3.00;;
70818;SDS011;58439;51.046;13.692;2022-07-06T11:39:36;5.88;;;3.08;;
70818;SDS011;58439;51.046;13.692;2022-07-06T11:42:55;5.07;;;3.22;;
70818;SDS011;58439;51.046;13.692;2022-07-06T11:45:48;8.30;;;4.13;;
70818;SDS011;58439;51.046;13.692;2022-07-06T11:49:31;5.45;;;3.50;;
70818;SDS011;58439;51.046;13.692;2022-07-06T11:52:10;4.70;;;4.03;;
70818;SDS011;58439;51.046;13.692;2022-07-06T11:54:48;6.68;;;4.60;;
70818;SDS011;58439;51.046;13.692;2022-07-06T11:57:29;8.38;;;3.90;;
70818;SDS011;58439;51.046;13.692;2022-07-06T12:00:25;4.55;;;4.03;;
70818;SDS011;58439;51.046;13.692;2022-07-06T12:03:11;4.25;;;3.80;;
70818;SDS011;58439;51.046;13.692;2022-07-06T12:05:42;6.13;;;4.13;;
70818;SDS011;58439;51.046;13.692;2022-07-06T12:08:09;5.97;;;4.38;;
70818;SDS011;58439;51.046;13.692;2022-07-06T12:10:37;6.05;;;3.25;;
70818;SDS011;58439;51.046;13.692;2022-07-06T12:13:04;4.57;;;2.97;;
70818;SDS011;58439;51.046;13.692;2022-07-06T12:15:32;7.15;;;6.53;;
70818;SDS011;58439;51.046;13.692;2022-07-06T12:17:59;4.75;;;4.28;;
70818;SDS011;58439;51.046;13.692;2022-07-06T12:20:27;5.50;;;3.47;;
70818;SDS011;58439;51.046;13.692;2022-07-06T12:23:05;6.07;;;4.15;;
70818;SDS011;58439;51.046;13.692;2022-07-06T12:25:35;6.18;;;3.88;;
70818;SDS011;58439;51.046;13.692;2022-07-06T12:28:03;4.30;;;3.45;;
70818;SDS011;58439;51.046;13.692;2022-07-06T12:30:31;5.10;;;3.53;;
70818;SDS011;58439;51.046;13.692;2022-07-06T12:33:12;8.75;;;4.00;;
70818;SDS011;58439;51.046;13.692;2022-07-06T12:35:48;3.88;;;3.08;;
70818;SDS011;58439;51.046;13.692;2022-07-06T12:38:22;8.55;;;5.93;;
70818;SDS011;58439;51.046;13.692;2022-07-06T12:40:56;3.88;;;3.42;;
70818;SDS011;58439;51.046;13.692;2022-07-06T12:43:36;3.85;;;3.47;;
70818;SDS011;58439;51.046;13.692;2022-07-06T12:48:57;5.07;;;4.68;;
70818;SDS011;58439;51.046;13.692;2022-07-06T12:51:47;7.15;;;4.25;;
70818;SDS011;58439;51.046;13.692;2022-07-06T12:54:31;9.25;;;4.03;;
70818;SDS011;58439;51.046;13.692;2022-07-06T12:59:54;5.15;;;4.75;;
70818;SDS011;58439;51.046;13.692;2022-07-06T13:02:26;3.45;;;3.15;;
70818;SDS011;58439;51.046;13.692;2022-07-06T13:05:17;3.42;;;3.13;;
70818;SDS011;58439;51.046;13.692;2022-07-06T13:07:45;7.78;;;5.20;;
70818;SDS011;58439;51.046;13.692;2022-07-06T13:10:15;6.70;;;3.90;;
70818;SDS011;58439;51.046;13.692;2022-07-06T13:12:46;6.30;;;5.17;;
70818;SDS011;58439;51.046;13.692;2022-07-06T13:15:14;7.63;;;3.85;;
70818;SDS011;58439;51.046;13.692;2022-07-06T13:17:42;6.68;;;3.85;;
70818;SDS011;58439;51.046;13.692;2022-07-06T13:20:11;3.22;;;3.03;;
70818;SDS011;58439;51.046;13.692;2022-07-06T13:22:40;6.10;;;5.45;;
70818;SDS011;58439;51.046;13.692;2022-07-06T13:25:07;5.85;;;5.32;;
70818;SDS011;58439;51.046;13.692;2022-07-06T13:27:44;8.10;;;3.58;;
70818;SDS011;58439;51.046;13.692;2022-07-06T13:30:12;4.65;;;4.13;;
70818;SDS011;58439;51.046;13.692;2022-07-06T13:32:42;8.18;;;4.63;;
70818;SDS011;58439;51.046;13.692;2022-07-06T13:35:09;3.92;;;3.22;;
70818;SDS011;58439;51.046;13.692;2022-07-06T13:37:37;8.18;;;3.25;;
70818;SDS011;58439;51.046;13.692;2022-07-06T13:40:05;5.28;;;3.67;;
70818;SDS011;58439;51.046;13.692;2022-07-06T13:42:33;8.38;;;3.78;;
70818;SDS011;58439;51.046;13.692;2022-07-06T13:45:01;6.63;;;3.75;;
70818;SDS011;58439;51.046;13.692;2022-07-06T13:47:28;4.38;;;4.07;;
70818;SDS011;58439;51.046;13.692;2022-07-06T13:49:56;4.80;;;3.30;;
70818;SDS011;58439;51.046;13.692;2022-07-06T13:52:26;4.65;;;4.18;;
70818;SDS011;58439;51.046;13.692;2022-07-06T13:54:54;4.60;;;3.58;;
70818;SDS011;58439;51.046;13.692;2022-07-06T13:57:27;3.90;;;3.47;;
70818;SDS011;58439;51.046;13.692;2022-07-06T13:59:55;7.18;;;5.18;;
70818;SDS011;58439;51.046;13.692;2022-07-06T14:02:22;4.55;;;4.15;;
70818;SDS011;58439;51.046;13.692;2022-07-06T14:04:50;7.47;;;3.92;;
70818;SDS011;58439;51.046;13.692;2022-07-06T14:07:23;6.07;;;4.97;;
70818;SDS011;58439;51.046;13.692;2022-07-06T14:09:50;6.55;;;6.05;;
70818;SDS011;58439;51.046;13.692;2022-07-06T14:12:19;5.20;;;4.70;;
70818;SDS011;58439;51.046;13.692;2022-07-06T14:14:48;5.18;;;4.28;;
70818;SDS011;58439;51.046;13.692;2022-07-06T14:17:17;5.43;;;4.00;;
70818;SDS011;58439;51.046;13.692;2022-07-06T14:19:44;5.95;;;4.00;;
70818;SDS011;58439;51.046;13.692;2022-07-06T14:22:13;5.55;;;4.63;;
70818;SDS011;58439;51.046;13.692;2022-07-06T14:24:40;5.22;;;4.53;;
70818;SDS011;58439;51.046;13.692;2022-07-06T14:27:08;4.60;;;3.80;;
70818;SDS011;58439;51.046;13.692;2022-07-06T14:29:35;5.30;;;4.90;;
70818;SDS011;58439;51.046;13.692;2022-07-06T14:32:03;5.65;;;4.93;;
70818;SDS011;58439;51.046;13.692;2022-07-06T14:34:33;3.80;;;3.40;;
70818;SDS011;58439;51.046;13.692;2022-07-06T14:37:01;5.25;;;3.70;;
70818;SDS011;58439;51.046;13.692;2022-07-06T14:39:29;4.63;;;3.80;;
70818;SDS011;58439;51.046;13.692;2022-07-06T14:41:57;5.63;;;3.58;;
70818;SDS011;58439;51.046;13.692;2022-07-06T14:44:25;4.15;;;3.00;;
70818;SDS011;58439;51.046;13.692;2022-07-06T14:46:53;4.63;;;4.32;;
70818;SDS011;58439;51.046;13.692;2022-07-06T14:49:24;4.10;;;3.78;;
70818;SDS011;58439;51.046;13.692;2022-07-06T14:51:54;3.60;;;3.25;;
70818;SDS011;58439;51.046;13.692;2022-07-06T14:54:24;4.80;;;3.50;;
70818;SDS011;58439;51.046;13.692;2022-07-06T14:56:52;5.15;;;3.42;;
70818;SDS011;58439;51.046;13.692;2022-07-06T14:59:20;6.00;;;4.20;;
70818;SDS011;58439;51.046;13.692;2022-07-06T15:01:51;4.90;;;3.07;;
70818;SDS011;58439;51.046;13.692;2022-07-06T15:04:20;5.03;;;3.40;;
70818;SDS011;58439;51.046;13.692;2022-07-06T15:06:53;5.55;;;4.40;;
70818;SDS011;58439;51.046;13.692;2022-07-06T15:09:23;5.25;;;4.88;;
70818;SDS011;58439;51.046;13.692;2022-07-06T15:11:53;4.38;;;4.05;;
70818;SDS011;58439;51.046;13.692;2022-07-06T15:14:21;5.88;;;3.90;;
70818;SDS011;58439;51.046;13.692;2022-07-06T15:16:49;6.47;;;4.03;;
70818;SDS011;58439;51.046;13.692;2022-07-06T15:19:19;3.97;;;3.67;;
70818;SDS011;58439;51.046;13.692;2022-07-06T15:21:46;3.55;;;3.20;;
70818;SDS011;58439;51.046;13.692;2022-07-06T15:24:14;4.25;;;3.95;;
70818;SDS011;58439;51.046;13.692;2022-07-06T15:26:41;6.55;;;4.13;;
70818;SDS011;58439;51.046;13.692;2022-07-06T15:29:09;3.63;;;3.33;;
70818;SDS011;58439;51.046;13.692;2022-07-06T15:31:36;4.40;;;4.00;;
70818;SDS011;58439;51.046;13.692;2022-07-06T15:34:20;5.25;;;4.75;;
70818;SDS011;58439;51.046;13.692;2022-07-06T15:36:51;4.78;;;4.35;;
70818;SDS011;58439;51.046;13.692;2022-07-06T15:39:19;4.85;;;4.13;;
70818;SDS011;58439;51.046;13.692;2022-07-06T15:41:48;3.60;;;3.30;;
70818;SDS011;58439;51.046;13.692;2022-07-06T15:44:22;4.82;;;4.43;;
70818;SDS011;58439;51.046;13.692;2022-07-06T15:46:51;4.93;;;4.55;;
70818;SDS011;58439;51.046;13.692;2022-07-06T15:49:18;4.47;;;4.13;;
70818;SDS011;58439;51.046;13.692;2022-07-06T15:51:47;4.50;;;4.10;;
70818;SDS011;58439;51.046;13.692;2022-07-06T15:54:14;3.65;;;3.35;;
70818;SDS011;58439;51.046;13.692;2022-07-06T15:56:42;5.47;;;4.25;;
70818;SDS011;58439;51.046;13.692;2022-07-06T15:59:09;3.85;;;3.47;;
70818;SDS011;58439;51.046;13.692;2022-07-06T16:01:36;6.75;;;4.28;;
70818;SDS011;58439;51.046;13.692;2022-07-06T16:04:13;4.30;;;3.75;;
70818;SDS011;58439;51.046;13.692;2022-07-06T16:06:41;7.35;;;4.38;;
70818;SDS011;58439;51.046;13.692;2022-07-06T16:09:28;5.57;;;5.07;;
70818;SDS011;58439;51.046;13.692;2022-07-06T16:14:57;4.63;;;3.67;;
70818;SDS011;58439;51.046;13.692;2022-07-06T16:17:29;4.53;;;3.40;;
70818;SDS011;58439;51.046;13.692;2022-07-06T16:23:32;6.72;;;4.00;;
70818;SDS011;58439;51.046;13.692;2022-07-06T16:25:59;3.53;;;3.22;;
70818;SDS011;58439;51.046;13.692;2022-07-06T16:28:28;4.30;;;3.83;;
70818;SDS011;58439;51.046;13.692;2022-07-06T16:30:56;4.47;;;3.20;;
70818;SDS011;58439;51.046;13.692;2022-07-06T16:33:23;3.00;;;2.70;;
70818;SDS011;58439;51.046;13.692;2022-07-06T16:35:51;3.60;;;3.10;;
70818;SDS011;58439;51.046;13.692;2022-07-06T16:38:25;5.53;;;5.10;;
70818;SDS011;58439;51.046;13.692;2022-07-06T16:40:52;7.03;;;4.03;;